Time;durP1;ratioP1;P1;durP2;ratioP2;P2;SDS_P1;SDS_P2;PMS_P1;PMS_P2;Temp;Humidity;BMP_temperature;BMP_pressure;BME280_temperature;BME280_humidity;BME280_pressure;Samples;Min_cycle;Max_cycle;Signal;HPM_P1;HPM_P2
2022/01/27 00:01:42;;;;;;;38.08;14.95;;;6.10;99.90;;;;;;5040920;28;20048;-74
2022/01/27 00:04:17;;;;;;;29.85;13.57;;;6.10;99.90;;;;;;5044562;28;20053;-75
2022/01/27 00:06:42;;;;;;;36.75;15.68;;;6.10;99.90;;;;;;5006925;28;20099;-75
2022/01/27 00:09:21;;;;;;;35.92;14.70;;;6.10;99.90;;;;;;5026069;28;20080;-75
2022/01/27 00:11:48;;;;;;;31.13;14.00;;;6.10;99.90;;;;;;5024587;28;20041;-76
2022/01/27 00:14:16;;;;;;;30.13;14.93;;;6.10;99.90;;;;;;5029345;28;20046;-75
2022/01/27 00:16:52;;;;;;;31.95;14.95;;;6.10;99.90;;;;;;5011962;28;20063;-74
2022/01/27 00:19:18;;;;;;;30.85;14.27;;;6.10;99.90;;;;;;5041596;28;20057;-75
2022/01/27 00:21:44;;;;;;;38.60;15.82;;;6.10;99.90;;;;;;5044556;28;20351;-75
2022/01/27 00:24:09;;;;;;;39.45;15.48;;;6.10;99.90;;;;;;5027236;28;20224;-76
2022/01/27 00:26:35;;;;;;;36.95;15.75;;;6.10;99.90;;;;;;5041153;28;20044;-77
2022/01/27 00:29:00;;;;;;;39.42;16.23;;;6.10;99.90;;;;;;5010480;28;20033;-76
2022/01/27 00:31:26;;;;;;;41.42;15.07;;;6.10;99.90;;;;;;5043284;28;20090;-76
2022/01/27 00:33:53;;;;;;;35.53;15.02;;;6.10;99.90;;;;;;5010902;28;20084;-75
2022/01/27 00:36:19;;;;;;;36.45;16.08;;;6.00;99.90;;;;;;4997500;28;20045;-77
2022/01/27 00:38:45;;;;;;;32.75;15.15;;;6.00;99.90;;;;;;5047996;28;20401;-76
2022/01/27 00:41:13;;;;;;;35.47;14.68;;;6.00;99.90;;;;;;5048726;28;20388;-75
2022/01/27 00:43:38;;;;;;;37.80;14.88;;;6.00;99.90;;;;;;5046997;28;20049;-76
2022/01/27 00:46:10;;;;;;;30.67;13.95;;;6.00;99.90;;;;;;5013727;28;20094;-76
2022/01/27 00:48:36;;;;;;;36.53;15.05;;;6.00;99.90;;;;;;5013908;28;20056;-76
2022/01/27 00:51:04;;;;;;;32.38;14.63;;;6.00;99.90;;;;;;5018007;28;20045;-76
2022/01/27 00:56:16;;;;;;;31.75;14.02;;;5.90;99.90;;;;;;5031439;28;20571;-75
2022/01/27 01:01:16;;;;;;;39.35;14.82;;;5.90;99.90;;;;;;5032000;28;20045;-76
2022/01/27 01:03:45;;;;;;;32.58;14.27;;;5.90;99.90;;;;;;5012379;28;20064;-75
2022/01/27 01:16:30;;;;;;;28.42;14.50;;;5.80;99.90;;;;;;5037959;28;20124;-75
2022/01/27 01:19:07;;;;;;;34.20;15.52;;;5.80;99.90;;;;;;5032601;28;20059;-75
2022/01/27 01:34:32;;;;;;;44.53;17.20;;;5.70;99.90;;;;;;5045529;28;20048;-75
2022/01/27 01:37:03;;;;;;;39.70;16.52;;;5.70;99.90;;;;;;5012768;28;20049;-76
2022/01/27 01:39:34;;;;;;;38.85;18.58;;;5.80;99.90;;;;;;5029662;28;20088;-75
2022/01/27 01:42:05;;;;;;;36.67;17.45;;;5.60;99.90;;;;;;5028451;28;20749;-76
2022/01/27 01:44:34;;;;;;;39.33;18.25;;;5.60;99.90;;;;;;5028375;28;20449;-75
2022/01/27 01:47:00;;;;;;;36.08;16.92;;;5.60;99.90;;;;;;5029673;28;20629;-76
2022/01/27 01:49:27;;;;;;;41.10;18.42;;;5.50;99.90;;;;;;5010089;28;20077;-75
2022/01/27 01:51:54;;;;;;;34.33;17.23;;;5.50;99.90;;;;;;5028765;28;20088;-77
2022/01/27 01:54:20;;;;;;;38.33;17.42;;;5.50;99.90;;;;;;5028400;28;20099;-76
2022/01/27 01:56:46;;;;;;;32.45;16.58;;;5.50;99.90;;;;;;5011930;28;20049;-75
2022/01/27 01:59:12;;;;;;;37.88;17.77;;;5.60;99.90;;;;;;5028955;28;20088;-75
2022/01/27 02:01:39;;;;;;;34.20;17.60;;;5.50;99.90;;;;;;5011626;28;20132;-76
2022/01/27 02:04:08;;;;;;;36.28;17.55;;;5.50;99.90;;;;;;5012269;28;20094;-76
2022/01/27 02:06:44;;;;;;;41.05;17.27;;;5.50;99.90;;;;;;5010898;28;20494;-75
2022/01/27 02:09:31;;;;;;;35.08;16.92;;;5.50;99.90;;;;;;5012094;28;20053;-75
2022/01/27 02:20:12;;;;;;;36.95;18.23;;;5.50;99.90;;;;;;5033205;28;20103;-76
2022/01/27 02:22:39;;;;;;;38.53;19.73;;;5.60;99.90;;;;;;5019844;28;20084;-76
2022/01/27 02:25:06;;;;;;;43.10;19.92;;;5.50;99.90;;;;;;5054028;28;20044;-77
2022/01/27 02:27:32;;;;;;;39.40;19.13;;;5.50;99.90;;;;;;5029103;28;20136;-75
2022/01/27 02:29:57;;;;;;;41.08;20.17;;;5.60;99.90;;;;;;5028082;28;20049;-76
2022/01/27 02:32:24;;;;;;;35.33;19.40;;;5.60;99.90;;;;;;5027859;28;20768;-76
2022/01/27 02:34:50;;;;;;;38.05;19.20;;;5.70;99.90;;;;;;5027997;28;20044;-78
2022/01/27 02:37:16;;;;;;;36.78;19.83;;;5.60;99.90;;;;;;5027600;28;20049;-75
2022/01/27 02:39:41;;;;;;;45.65;20.67;;;5.60;99.90;;;;;;5010231;28;20617;-75
2022/01/27 02:42:35;;;;;;;41.40;19.52;;;5.60;99.90;;;;;;5027665;28;20128;-75
2022/01/27 02:45:40;;;;;;;39.88;19.15;;;5.60;99.90;;;;;;5030051;28;20420;-75
2022/01/27 02:48:06;;;;;;;43.03;20.65;;;5.60;99.90;;;;;;5035422;28;20095;-76
2022/01/27 02:50:32;;;;;;;37.88;19.80;;;5.60;99.90;;;;;;5032303;28;20557;-72
2022/01/27 02:52:57;;;;;;;38.80;20.38;;;5.60;99.90;;;;;;5013234;28;20046;-73
2022/01/27 02:55:23;;;;;;;39.53;20.92;;;5.70;99.90;;;;;;5010840;28;20071;-73
2022/01/27 02:57:49;;;;;;;45.90;22.83;;;5.70;99.90;;;;;;5027355;28;20173;-73
2022/01/27 03:00:15;;;;;;;42.10;20.63;;;5.70;99.90;;;;;;5026171;28;20604;-72
2022/01/27 03:02:41;;;;;;;42.40;23.02;;;5.70;99.90;;;;;;5025816;28;20073;-72
2022/01/27 03:05:06;;;;;;;44.90;21.55;;;5.70;99.90;;;;;;5010929;28;20485;-73
2022/01/27 03:07:32;;;;;;;43.67;22.30;;;5.70;99.90;;;;;;5027055;28;20050;-72
2022/01/27 03:09:58;;;;;;;47.42;22.90;;;5.70;99.90;;;;;;5027006;28;20033;-73
2022/01/27 03:12:26;;;;;;;43.25;20.08;;;5.70;99.90;;;;;;5027075;28;20081;-74
2022/01/27 03:14:52;;;;;;;49.90;21.92;;;5.70;99.90;;;;;;5027499;28;20088;-74
2022/01/27 03:17:18;;;;;;;41.53;21.45;;;5.70;99.90;;;;;;5027626;28;20092;-74
2022/01/27 03:19:43;;;;;;;39.28;20.17;;;5.70;99.90;;;;;;5026252;28;20069;-74
2022/01/27 03:22:10;;;;;;;38.28;20.20;;;5.70;99.90;;;;;;5019459;28;20042;-73
2022/01/27 03:24:37;;;;;;;45.22;18.83;;;5.80;99.90;;;;;;5026713;28;20490;-72
2022/01/27 03:27:07;;;;;;;43.75;19.90;;;5.80;99.90;;;;;;5027397;28;20041;-72
2022/01/27 03:29:33;;;;;;;41.13;19.42;;;5.80;99.90;;;;;;5027438;28;20061;-72
2022/01/27 03:31:59;;;;;;;42.85;20.70;;;5.80;99.90;;;;;;5010872;28;20037;-72
2022/01/27 03:34:25;;;;;;;40.38;20.80;;;5.80;99.90;;;;;;5027486;28;20200;-72
2022/01/27 03:36:51;;;;;;;36.80;18.42;;;5.80;99.90;;;;;;5010947;28;20060;-72
2022/01/27 03:39:19;;;;;;;38.05;19.20;;;5.80;99.90;;;;;;5027560;28;20069;-72
2022/01/27 03:41:50;;;;;;;41.05;19.95;;;5.80;99.90;;;;;;5010518;28;20053;-72
2022/01/27 03:44:17;;;;;;;;;;;5.90;99.90;;;;;;5027529;28;20514;-72
2022/01/27 03:46:42;;;;;;;37.75;18.33;;;5.90;99.90;;;;;;5026532;28;19925;-73
2022/01/27 03:49:08;;;;;;;43.17;18.70;;;5.90;99.90;;;;;;5010285;28;20040;-72
2022/01/27 03:51:34;;;;;;;45.13;19.25;;;6.50;99.90;;;;;;5026073;28;20049;-73
2022/01/27 03:53:59;;;;;;;39.90;18.70;;;5.90;99.90;;;;;;5042856;28;20037;-72
2022/01/27 03:56:25;;;;;;;38.10;17.70;;;5.90;99.90;;;;;;5026539;28;20064;-73
2022/01/27 03:58:51;;;;;;;39.00;18.23;;;5.90;99.90;;;;;;5026764;28;20057;-72
2022/01/27 04:01:17;;;;;;;42.42;19.50;;;5.90;99.90;;;;;;5002145;28;20060;-73
2022/01/27 04:03:44;;;;;;;39.90;18.40;;;5.90;99.90;;;;;;5026420;28;20572;-72
2022/01/27 04:06:10;;;;;;;36.50;18.40;;;5.90;99.90;;;;;;5025982;28;20037;-74
2022/01/27 04:08:38;;;;;;;43.45;19.50;;;5.90;99.90;;;;;;5026272;28;20100;-73
2022/01/27 04:11:06;;;;;;;40.80;18.85;;;5.90;99.90;;;;;;5008989;28;20140;-72
2022/01/27 04:13:32;;;;;;;38.63;17.75;;;5.90;99.90;;;;;;5025916;28;20072;-73
2022/01/27 04:15:58;;;;;;;47.33;18.48;;;5.90;99.90;;;;;;5026290;28;20045;-73
2022/01/27 04:18:24;;;;;;;44.42;17.83;;;5.90;99.90;;;;;;5043176;28;20581;-72
2022/01/27 04:20:50;;;;;;;44.55;19.00;;;5.90;99.90;;;;;;5009062;28;20049;-73
2022/01/27 04:23:18;;;;;;;41.22;18.83;;;6.00;99.90;;;;;;5026246;28;20379;-73
2022/01/27 04:25:44;;;;;;;41.67;18.27;;;6.00;99.90;;;;;;5009581;28;20046;-73
2022/01/27 04:28:13;;;;;;;42.70;16.45;;;6.00;99.90;;;;;;5026587;28;20049;-72
2022/01/27 04:30:39;;;;;;;39.60;17.35;;;6.00;99.90;;;;;;5008165;28;20040;-74
2022/01/27 04:33:06;;;;;;;45.70;17.17;;;6.00;99.90;;;;;;5026409;28;20041;-72
2022/01/27 04:35:36;;;;;;;39.58;17.00;;;6.00;99.90;;;;;;5019136;28;20088;-72
2022/01/27 04:48:41;;;;;;;37.88;16.88;;;6.00;99.90;;;;;;5032013;28;20553;-73
2022/01/27 04:51:09;;;;;;;35.80;16.38;;;6.00;99.90;;;;;;5052283;28;20128;-73
2022/01/27 04:53:41;;;;;;;35.65;15.18;;;6.00;99.90;;;;;;5025472;28;20127;-73
2022/01/27 04:56:12;;;;;;;39.60;16.17;;;6.00;99.90;;;;;;5024214;28;20107;-73
2022/01/27 04:58:37;;;;;;;32.97;15.13;;;6.00;99.90;;;;;;5035534;28;20049;-73
2022/01/27 05:01:04;;;;;;;40.53;17.38;;;6.00;99.90;;;;;;5006826;28;21281;-72
2022/01/27 05:03:37;;;;;;;37.70;15.20;;;6.10;99.90;;;;;;5008905;28;20477;-73
2022/01/27 05:06:03;;;;;;;42.25;15.15;;;6.10;99.90;;;;;;5026357;28;20056;-73
2022/01/27 05:08:29;;;;;;;37.30;15.35;;;6.10;99.90;;;;;;5026683;28;20044;-73
2022/01/27 05:11:00;;;;;;;38.15;16.25;;;6.10;99.90;;;;;;5025109;28;20118;-73
2022/01/27 05:13:28;;;;;;;43.97;17.23;;;6.10;99.90;;;;;;5029724;28;20086;-73
2022/01/27 05:15:54;;;;;;;42.97;16.45;;;6.00;99.90;;;;;;5043036;28;20292;-74
2022/01/27 05:18:20;;;;;;;42.15;15.02;;;6.00;99.90;;;;;;5009345;28;20064;-72
2022/01/27 05:20:47;;;;;;;41.35;15.13;;;6.00;99.90;;;;;;5006137;28;20550;-72
2022/01/27 05:23:13;;;;;;;38.85;15.93;;;6.00;99.90;;;;;;5004708;28;20055;-73
2022/01/27 05:25:39;;;;;;;37.45;15.35;;;6.00;99.90;;;;;;5012774;28;20476;-73
2022/01/27 05:28:06;;;;;;;37.15;15.07;;;6.00;99.90;;;;;;5017924;28;20049;-72
2022/01/27 05:30:32;;;;;;;47.22;15.30;;;6.00;99.90;;;;;;5035436;28;20548;-73
2022/01/27 05:32:58;;;;;;;37.78;15.40;;;6.00;99.90;;;;;;5030432;28;20040;-73
2022/01/27 05:35:23;;;;;;;44.03;16.17;;;6.00;99.90;;;;;;5059382;28;20114;-72
2022/01/27 05:37:49;;;;;;;47.97;16.17;;;6.00;99.90;;;;;;5019108;28;20132;-72
2022/01/27 05:40:15;;;;;;;41.92;16.45;;;6.00;99.90;;;;;;5031572;28;20088;-72
2022/01/27 05:42:41;;;;;;;46.08;15.57;;;6.10;99.90;;;;;;5034764;28;20056;-72
2022/01/27 05:45:07;;;;;;;40.90;15.40;;;6.10;99.90;;;;;;5019284;28;20080;-72
2022/01/27 05:47:33;;;;;;;44.22;15.80;;;6.10;99.90;;;;;;5054877;28;20049;-73
2022/01/27 05:49:59;;;;;;;43.85;15.77;;;6.00;99.90;;;;;;5028847;28;20103;-72
2022/01/27 05:52:24;;;;;;;39.85;14.75;;;6.00;99.90;;;;;;5046300;28;20045;-72
2022/01/27 05:54:50;;;;;;;56.05;15.23;;;6.00;99.90;;;;;;5030666;28;20045;-73
2022/01/27 05:57:16;;;;;;;42.30;15.23;;;6.10;99.90;;;;;;5016943;28;20506;-72
2022/01/27 05:59:41;;;;;;;38.03;15.50;;;6.00;99.90;;;;;;5011382;28;20599;-72
2022/01/27 06:02:07;;;;;;;44.55;15.55;;;6.00;99.90;;;;;;5029613;28;20128;-72
2022/01/27 06:04:32;;;;;;;51.60;15.70;;;6.00;99.90;;;;;;5014868;28;20132;-72
2022/01/27 06:06:58;;;;;;;46.83;15.80;;;6.00;99.90;;;;;;5034639;28;20584;-72
2022/01/27 06:09:24;;;;;;;48.35;16.30;;;6.00;99.90;;;;;;5041953;28;20087;-72
2022/01/27 06:11:50;;;;;;;37.25;15.95;;;6.10;99.90;;;;;;5029984;28;20038;-72
2022/01/27 06:14:16;;;;;;;37.63;13.85;;;6.10;99.90;;;;;;5042714;28;20045;-71
2022/01/27 06:16:45;;;;;;;46.03;15.32;;;6.10;99.90;;;;;;5015779;28;20056;-71
2022/01/27 06:19:10;;;;;;;44.15;14.18;;;6.10;99.90;;;;;;5003117;28;20052;-72
2022/01/27 06:21:36;;;;;;;42.97;16.08;;;6.10;99.90;;;;;;5023563;28;20073;-71
2022/01/27 06:24:03;;;;;;;41.75;14.88;;;6.10;99.90;;;;;;5023085;28;20573;-70
2022/01/27 06:26:29;;;;;;;38.38;14.35;;;6.10;99.90;;;;;;5010104;28;20053;-71
2022/01/27 06:28:56;;;;;;;36.40;14.35;;;6.10;99.90;;;;;;5007498;28;20124;-72
2022/01/27 06:31:22;;;;;;;40.17;15.10;;;6.20;99.90;;;;;;5009067;28;20069;-71
2022/01/27 06:33:48;;;;;;;40.83;13.75;;;6.10;99.90;;;;;;5011032;28;20057;-72
2022/01/27 06:36:13;;;;;;;38.90;14.00;;;6.20;99.90;;;;;;5004694;28;20322;-70
2022/01/27 06:38:39;;;;;;;41.60;14.77;;;6.10;99.90;;;;;;4996540;28;20384;-70
2022/01/27 06:41:05;;;;;;;36.10;13.82;;;6.40;99.90;;;;;;5014180;28;20140;-72
2022/01/27 06:43:31;;;;;;;39.75;13.95;;;6.20;99.90;;;;;;5027681;28;20057;-72
2022/01/27 06:45:56;;;;;;;37.50;14.30;;;6.20;99.90;;;;;;4997822;28;20041;-71
2022/01/27 06:48:22;;;;;;;39.70;13.48;;;6.20;99.90;;;;;;5023540;28;20041;-71
2022/01/27 06:50:53;;;;;;;40.72;13.98;;;6.30;99.90;;;;;;5003370;28;20061;-72
2022/01/27 06:53:19;;;;;;;42.70;14.05;;;6.20;99.90;;;;;;5007528;28;20053;-71
2022/01/27 06:55:45;;;;;;;34.22;13.40;;;6.30;99.90;;;;;;5008470;28;20041;-71
2022/01/27 06:58:10;;;;;;;35.33;13.82;;;6.30;99.90;;;;;;5007435;28;20246;-73
2022/01/27 07:00:36;;;;;;;38.20;13.70;;;6.30;99.90;;;;;;5011162;28;20064;-71
2022/01/27 07:03:02;;;;;;;46.15;14.60;;;6.30;99.90;;;;;;5006426;28;20172;-72
2022/01/27 07:05:31;;;;;;;37.85;14.07;;;6.30;99.90;;;;;;4983894;28;20040;-71
2022/01/27 07:07:56;;;;;;;38.30;13.95;;;6.30;99.90;;;;;;4991840;28;20310;-71
2022/01/27 07:10:22;;;;;;;38.53;13.50;;;6.30;99.90;;;;;;5003218;28;20048;-71
2022/01/27 07:12:48;;;;;;;31.85;12.70;;;6.30;99.90;;;;;;5012485;28;20076;-71
2022/01/27 07:15:14;;;;;;;29.30;12.55;;;6.40;99.90;;;;;;5036002;28;20056;-72
2022/01/27 07:17:40;;;;;;;32.40;13.27;;;6.40;99.90;;;;;;5020506;28;20049;-72
2022/01/27 07:20:06;;;;;;;30.92;11.77;;;6.40;99.90;;;;;;5024679;28;20041;-72
2022/01/27 07:22:33;;;;;;;33.35;13.05;;;6.40;99.90;;;;;;5023622;28;20045;-71
2022/01/27 07:24:59;;;;;;;38.38;13.45;;;6.40;99.90;;;;;;5021687;28;20650;-72
2022/01/27 07:27:25;;;;;;;31.23;12.32;;;6.40;99.90;;;;;;5040733;28;20128;-71
2022/01/27 07:29:50;;;;;;;34.13;12.90;;;6.50;99.90;;;;;;5007624;28;20034;-70
2022/01/27 07:32:16;;;;;;;35.08;13.05;;;6.50;99.90;;;;;;5022652;28;20033;-71
2022/01/27 07:34:42;;;;;;;38.25;13.10;;;6.50;99.90;;;;;;5024343;28;20048;-71
2022/01/27 07:37:08;;;;;;;38.70;12.43;;;6.50;99.90;;;;;;5019757;28;20053;-70
2022/01/27 07:39:33;;;;;;;37.05;13.23;;;6.50;99.90;;;;;;5007948;28;20056;-69
2022/01/27 07:42:00;;;;;;;42.17;14.13;;;6.60;99.90;;;;;;5024393;28;20106;-70
2022/01/27 07:44:27;;;;;;;39.75;12.45;;;6.60;99.90;;;;;;5037094;28;20068;-70
2022/01/27 07:46:52;;;;;;;45.28;12.95;;;6.60;99.90;;;;;;5020818;28;20073;-72
2022/01/27 07:49:18;;;;;;;36.83;12.80;;;6.60;99.90;;;;;;5038111;28;20129;-71
2022/01/27 07:51:43;;;;;;;43.40;13.73;;;6.70;99.90;;;;;;5013571;28;20076;-71
2022/01/27 07:54:09;;;;;;;32.20;11.75;;;6.70;99.90;;;;;;5033547;28;20033;-71
2022/01/27 07:56:35;;;;;;;40.20;12.75;;;6.70;99.90;;;;;;5041902;28;20168;-71
2022/01/27 07:59:00;;;;;;;40.60;12.43;;;6.70;99.90;;;;;;5024508;28;20053;-71
2022/01/27 08:01:26;;;;;;;38.03;12.50;;;6.70;99.90;;;;;;5016523;28;20450;-71
2022/01/27 08:03:52;;;;;;;38.85;12.27;;;6.80;99.90;;;;;;5006297;28;20041;-72
2022/01/27 08:06:17;;;;;;;43.83;12.38;;;6.80;99.90;;;;;;5019252;28;20522;-71
2022/01/27 08:08:43;;;;;;;39.25;11.32;;;6.80;99.90;;;;;;5029872;28;20046;-71
2022/01/27 08:11:09;;;;;;;42.72;11.68;;;6.80;99.90;;;;;;5005749;28;20037;-73
2022/01/27 08:13:37;;;;;;;31.63;10.70;;;6.90;99.90;;;;;;5006787;28;20049;-72
2022/01/27 08:16:03;;;;;;;38.38;10.30;;;7.00;99.90;;;;;;5022485;28;20061;-71
2022/01/27 08:18:29;;;;;;;37.42;10.18;;;6.90;99.90;;;;;;5023900;28;20046;-71
2022/01/27 08:20:54;;;;;;;27.27;9.23;;;7.00;99.90;;;;;;5019589;28;20050;-71
2022/01/27 08:23:21;;;;;;;31.08;8.98;;;7.00;99.90;;;;;;5023324;28;20037;-71
2022/01/27 08:25:59;;;;;;;38.35;9.90;;;7.00;99.90;;;;;;5020856;28;20041;-74
2022/01/27 08:28:31;;;;;;;37.05;9.82;;;7.10;99.90;;;;;;5040781;28;20040;-74
2022/01/27 08:30:58;;;;;;;37.17;9.15;;;7.10;99.90;;;;;;5022481;28;20240;-73
2022/01/27 08:33:28;;;;;;;28.58;8.55;;;7.20;99.90;;;;;;5040023;28;20099;-73
2022/01/27 08:35:54;;;;;;;31.35;9.50;;;7.20;99.90;;;;;;5021892;28;20847;-73
2022/01/27 08:38:20;;;;;;;32.97;8.63;;;7.20;99.90;;;;;;5014194;28;20157;-71
2022/01/27 08:40:46;;;;;;;33.67;8.73;;;7.20;99.90;;;;;;5020987;28;20053;-74
2022/01/27 08:43:11;;;;;;;33.33;8.90;;;7.20;99.90;;;;;;5021981;28;20037;-73
2022/01/27 08:45:39;;;;;;;25.25;7.60;;;7.20;99.90;;;;;;5004631;28;20477;-74
2022/01/27 08:48:07;;;;;;;26.13;7.72;;;7.30;99.90;;;;;;5023818;28;20453;-73
2022/01/27 08:50:33;;;;;;;30.58;7.57;;;7.30;99.90;;;;;;5003039;28;20052;-74
2022/01/27 08:52:58;;;;;;;30.10;7.05;;;7.20;99.90;;;;;;5019013;28;20164;-73
2022/01/27 08:55:24;;;;;;;33.15;8.05;;;7.30;99.90;;;;;;5017311;28;20046;-73
2022/01/27 08:57:50;;;;;;;30.35;8.32;;;7.30;99.90;;;;;;5036783;28;20049;-73
2022/01/27 09:00:19;;;;;;;21.95;7.07;;;7.30;99.90;;;;;;5041337;28;20099;-73
2022/01/27 09:02:46;;;;;;;27.35;6.68;;;7.30;99.90;;;;;;5026094;28;20041;-73
2022/01/27 09:05:12;;;;;;;29.83;7.70;;;7.30;99.90;;;;;;5026586;28;20119;-73
2022/01/27 09:07:38;;;;;;;29.45;6.55;;;7.40;99.90;;;;;;5026080;28;21579;-73
2022/01/27 09:10:05;;;;;;;28.52;6.68;;;7.40;99.90;;;;;;5022737;28;20041;-73
2022/01/27 09:12:31;;;;;;;33.03;7.32;;;7.50;99.90;;;;;;5022614;28;20177;-73
2022/01/27 09:14:57;;;;;;;24.92;5.88;;;7.50;99.90;;;;;;5005039;28;20146;-73
2022/01/27 09:17:26;;;;;;;29.98;6.85;;;7.50;99.90;;;;;;5022231;28;20513;-73
2022/01/27 09:19:52;;;;;;;30.23;6.68;;;7.50;99.90;;;;;;5021074;28;20060;-73
2022/01/27 09:22:19;;;;;;;26.13;6.28;;;7.50;99.90;;;;;;5021096;28;20565;-73
2022/01/27 09:24:59;;;;;;;24.48;5.53;;;7.60;99.90;;;;;;5021198;28;20057;-75
2022/01/27 09:27:26;;;;;;;23.33;5.85;;;7.60;99.90;;;;;;5017963;28;20111;-73
2022/01/27 09:29:53;;;;;;;34.45;6.65;;;7.70;99.90;;;;;;5017521;28;20234;-74
2022/01/27 09:32:20;;;;;;;18.92;5.55;;;7.80;99.90;;;;;;5005497;28;20045;-74
2022/01/27 09:34:46;;;;;;;29.10;5.90;;;7.80;99.90;;;;;;5020309;28;20060;-73
2022/01/27 09:37:12;;;;;;;22.63;4.88;;;7.80;99.90;;;;;;5034695;28;20649;-73
2022/01/27 09:39:38;;;;;;;25.38;5.57;;;7.90;99.90;;;;;;5021065;28;20618;-74
2022/01/27 09:42:06;;;;;;;20.65;4.75;;;7.80;99.90;;;;;;5004386;28;20242;-72
2022/01/27 09:44:33;;;;;;;25.52;5.93;;;7.90;99.90;;;;;;5034416;28;20084;-74
2022/01/27 09:47:02;;;;;;;30.83;6.10;;;7.90;99.90;;;;;;5019084;28;20045;-72
2022/01/27 09:49:38;;;;;;;30.13;5.82;;;7.90;99.90;;;;;;5017929;28;20145;-73
2022/01/27 09:52:05;;;;;;;29.30;5.60;;;7.90;99.90;;;;;;5017760;28;20399;-73
2022/01/27 09:54:31;;;;;;;24.42;5.15;;;7.90;99.90;;;;;;5019621;28;20136;-73
2022/01/27 09:56:57;;;;;;;27.95;5.43;;;8.00;99.90;;;;;;5018715;28;20046;-73
2022/01/27 09:59:23;;;;;;;31.35;5.93;;;8.00;99.90;;;;;;5021746;28;20037;-73
2022/01/27 10:01:58;;;;;;;31.92;5.90;;;8.00;99.90;;;;;;5036923;28;20061;-73
2022/01/27 10:04:43;;;;;;;28.05;6.30;;;8.00;99.90;;;;;;5036973;28;20049;-74
2022/01/27 10:07:10;;;;;;;23.45;4.95;;;8.00;99.90;;;;;;5034831;28;20061;-73
2022/01/27 10:09:36;;;;;;;23.58;5.15;;;8.00;99.90;;;;;;5002539;28;20050;-74
2022/01/27 10:12:05;;;;;;;25.20;5.47;;;8.10;99.90;;;;;;5020328;28;20160;-73
2022/01/27 10:14:38;;;;;;;23.50;5.20;;;8.10;99.90;;;;;;5019232;28;20128;-75
2022/01/27 10:17:12;;;;;;;23.40;4.75;;;8.10;99.90;;;;;;5004752;28;20494;-74
2022/01/27 10:19:38;;;;;;;22.50;4.78;;;8.10;99.90;;;;;;5034984;28;20128;-73
2022/01/27 10:22:14;;;;;;;21.13;4.65;;;8.20;99.90;;;;;;5005040;28;20041;-74
2022/01/27 10:24:40;;;;;;;30.90;4.60;;;8.20;99.90;;;;;;5020623;28;20452;-74
2022/01/27 10:32:56;;;;;;;24.45;4.93;;;8.30;99.90;;;;;;5033401;28;20053;-74
2022/01/27 10:35:25;;;;;;;19.50;4.47;;;8.30;99.90;;;;;;5014961;28;20058;-74
2022/01/27 10:38:12;;;;;;;28.23;4.72;;;8.40;99.90;;;;;;5019931;28;20045;-74
2022/01/27 10:40:44;;;;;;;25.63;4.30;;;8.40;99.90;;;;;;5020730;28;20041;-74
2022/01/27 10:43:15;;;;;;;23.70;4.68;;;8.50;99.90;;;;;;5019205;28;20045;-74
2022/01/27 10:46:23;;;;;;;23.30;5.35;;;8.50;99.90;;;;;;5017499;28;20048;-73
2022/01/27 10:49:05;;;;;;;21.88;4.07;;;8.50;99.90;;;;;;5019703;28;20072;-73
2022/01/27 10:51:37;;;;;;;22.85;4.80;;;8.50;99.90;;;;;;5019966;28;20049;-74
2022/01/27 10:54:16;;;;;;;;;;;8.60;99.90;;;;;;5003168;28;20521;-73
2022/01/27 10:56:42;;;;;;;17.90;4.05;;;8.60;99.90;;;;;;5020356;28;19975;-74
2022/01/27 10:59:16;;;;;;;23.65;4.53;;;8.70;99.90;;;;;;5004905;28;20072;-74
2022/01/27 11:01:44;;;;;;;19.73;4.05;;;8.70;99.90;;;;;;5017832;28;20520;-73
2022/01/27 11:04:12;;;;;;;24.08;4.63;;;8.70;99.90;;;;;;5018726;28;20049;-73
2022/01/27 11:06:56;;;;;;;24.20;4.78;;;8.70;99.90;;;;;;5019470;28;20224;-74
2022/01/27 11:09:23;;;;;;;20.65;3.78;;;8.70;99.90;;;;;;5020009;28;20056;-73
2022/01/27 11:11:52;;;;;;;27.13;4.40;;;8.70;99.90;;;;;;5004132;28;20564;-73
2022/01/27 11:14:18;;;;;;;29.25;4.45;;;8.70;99.90;;;;;;5027839;28;20052;-74
2022/01/27 11:16:45;;;;;;;22.38;3.75;;;8.80;99.90;;;;;;5006980;28;20538;-75
2022/01/27 11:21:46;;;;;;;25.58;3.88;;;8.80;99.90;;;;;;5027015;28;20054;-74
2022/01/27 11:24:22;;;;;;;25.65;4.90;;;8.80;99.90;;;;;;5020187;28;20045;-74
2022/01/27 11:26:53;;;;;;;21.40;4.43;;;8.90;99.90;;;;;;5001655;28;20410;-74
2022/01/27 11:29:19;;;;;;;22.20;3.95;;;8.90;99.90;;;;;;5033175;28;20057;-74
2022/01/27 11:32:00;;;;;;;28.63;3.75;;;8.90;99.90;;;;;;5033851;28;20057;-74
2022/01/27 11:34:49;;;;;;;22.33;3.88;;;8.90;99.90;;;;;;5017981;28;20077;-75
2022/01/27 11:37:18;;;;;;;18.23;4.18;;;8.90;99.90;;;;;;5015943;28;20175;-74
2022/01/27 11:39:49;;;;;;;25.67;3.78;;;8.90;99.90;;;;;;5019390;28;20809;-75
2022/01/27 11:42:18;;;;;;;28.35;5.00;;;8.90;99.90;;;;;;5015102;28;20072;-73
2022/01/27 11:44:45;;;;;;;28.73;4.68;;;8.90;99.90;;;;;;5033747;28;20091;-74
2022/01/27 11:47:12;;;;;;;23.38;3.80;;;9.00;99.90;;;;;;5033096;28;20469;-75
2022/01/27 11:50:07;;;;;;;20.27;3.45;;;9.00;99.90;;;;;;5002275;28;20560;-74
2022/01/27 11:53:03;;;;;;;23.50;3.45;;;9.00;99.90;;;;;;5035558;28;20053;-75
2022/01/27 11:55:35;;;;;;;31.13;4.28;;;9.00;99.90;;;;;;5011898;28;20072;-74
2022/01/27 11:58:11;;;;;;;26.38;4.47;;;9.00;99.90;;;;;;5033723;28;20079;-75
2022/01/27 12:00:38;;;;;;;29.48;3.75;;;8.90;99.90;;;;;;5035009;28;20575;-74
2022/01/27 12:03:05;;;;;;;32.33;4.65;;;8.90;99.90;;;;;;5015911;28;20486;-73
2022/01/27 12:05:39;;;;;;;27.77;3.85;;;8.90;99.90;;;;;;5017946;28;20456;-75
2022/01/27 12:08:18;;;;;;;25.85;4.40;;;8.90;99.90;;;;;;5017679;28;20041;-75
2022/01/27 12:11:02;;;;;;;23.45;4.15;;;8.90;99.90;;;;;;5016028;28;20061;-74
2022/01/27 12:13:34;;;;;;;31.63;4.50;;;8.90;99.90;;;;;;5018172;28;20068;-74
2022/01/27 12:19:03;;;;;;;32.38;4.38;;;9.00;99.90;;;;;;5017080;28;20045;-74
2022/01/27 12:21:51;;;;;;;29.70;3.67;;;8.90;99.90;;;;;;5034454;28;20042;-75
2022/01/27 12:24:25;;;;;;;25.55;4.22;;;8.90;99.90;;;;;;5034594;28;20041;-74
2022/01/27 12:26:54;;;;;;;22.33;3.78;;;9.00;99.90;;;;;;5034470;28;20099;-73
2022/01/27 12:29:39;;;;;;;32.17;5.88;;;9.00;99.90;;;;;;5035313;28;20387;-74
2022/01/27 12:32:17;;;;;;;28.10;3.80;;;9.00;99.90;;;;;;5017105;28;20049;-74
2022/01/27 12:34:52;;;;;;;23.25;3.80;;;9.00;99.90;;;;;;5002665;28;20053;-74
2022/01/27 12:37:21;;;;;;;26.88;4.10;;;9.00;99.90;;;;;;5034851;28;20180;-74
2022/01/27 12:39:53;;;;;;;23.75;3.85;;;9.00;99.90;;;;;;5018644;28;20409;-75
2022/01/27 12:42:20;;;;;;;24.35;3.65;;;9.00;99.90;;;;;;5018005;28;20345;-74
2022/01/27 12:45:03;;;;;;;25.35;3.80;;;9.10;99.90;;;;;;5001531;28;20128;-75
2022/01/27 12:47:30;;;;;;;22.63;4.30;;;9.00;99.90;;;;;;5034667;28;20132;-75
2022/01/27 12:50:04;;;;;;;22.33;3.38;;;9.10;99.90;;;;;;5000155;28;20072;-75
2022/01/27 12:52:35;;;;;;;23.35;3.13;;;9.10;99.90;;;;;;5025441;28;20057;-74
2022/01/27 12:55:00;;;;;;;24.50;3.53;;;9.10;99.90;;;;;;5018425;28;20710;-73
2022/01/27 12:57:32;;;;;;;21.45;3.47;;;9.20;99.90;;;;;;5018635;28;20072;-73
2022/01/27 13:00:00;;;;;;;28.48;4.28;;;9.20;99.90;;;;;;5017626;28;20046;-74
2022/01/27 13:02:27;;;;;;;21.08;3.53;;;9.20;99.90;;;;;;5018316;28;20521;-75
2022/01/27 13:04:54;;;;;;;27.20;3.63;;;9.20;99.90;;;;;;5019335;28;20053;-75
2022/01/27 13:07:22;;;;;;;25.00;4.07;;;9.20;99.90;;;;;;5018617;28;20049;-75
2022/01/27 13:09:54;;;;;;;26.17;3.38;;;9.10;99.90;;;;;;5033302;28;20053;-76
2022/01/27 13:12:24;;;;;;;30.00;4.47;;;9.20;99.90;;;;;;5035514;28;20403;-74
2022/01/27 13:15:06;;;;;;;24.92;3.70;;;9.10;99.90;;;;;;5018971;28;20406;-73
2022/01/27 13:17:39;;;;;;;25.13;3.72;;;9.10;99.90;;;;;;5018583;28;20046;-75
2022/01/27 13:20:12;;;;;;;25.35;4.20;;;9.00;99.90;;;;;;5017867;28;20398;-74
2022/01/27 13:22:50;;;;;;;21.70;3.85;;;9.00;99.90;;;;;;5018490;28;20449;-75
2022/01/27 13:25:18;;;;;;;28.33;3.70;;;9.00;99.90;;;;;;5034175;28;20049;-75
2022/01/27 13:27:44;;;;;;;22.35;3.83;;;9.00;99.90;;;;;;5017204;28;20037;-75
2022/01/27 13:30:10;;;;;;;29.70;4.28;;;9.00;99.90;;;;;;5017073;28;20203;-73
2022/01/27 13:32:35;;;;;;;24.73;3.40;;;9.00;99.90;;;;;;5017088;28;20605;-74
2022/01/27 13:35:02;;;;;;;26.67;3.83;;;9.00;99.90;;;;;;5018127;28;20056;-75
2022/01/27 13:37:33;;;;;;;28.52;4.90;;;9.00;99.90;;;;;;5017062;28;20050;-73
2022/01/27 13:42:58;;;;;;;25.13;3.58;;;8.90;99.90;;;;;;5016865;28;20080;-76
2022/01/27 13:45:24;;;;;;;26.73;3.70;;;8.90;99.90;;;;;;5037026;28;20045;-74
2022/01/27 13:47:50;;;;;;;21.95;3.10;;;8.90;99.90;;;;;;5016912;28;20076;-74
2022/01/27 13:50:17;;;;;;;27.67;3.88;;;8.90;99.90;;;;;;5002485;28;20073;-74